Zed — V7KU2 — position and weather

sailwx.info

Track history (hours):
 
Tides and Currents Weather Stations Pressure Air Temp Water Temp Dewpoint Dewpoint Depression Visibility Wind Speed Wind Dir Waves Ship Positions

Zed

Last reported at 2017-Jan-19 03:33 UTC. Time now 2017-Jan-19 04:32 UTC.
Position N 51°03' E 002°20'.

Length 225 m; draft 7.6 m.

Type: Cargo ship. MMSI: 538007106.

Date/timePositionNaut miles runAvg speedWind from/ knotsBaromVisibWave heightAir tempDewpointWater temp
2017-Jan-19 03:33N 51°03' E 002°20'0 0.4
2017-Jan-19 02:32N 51°03' E 002°19'0 0.0
2017-Jan-19 01:32N 51°03' E 002°19'0 0.0
2017-Jan-19 00:32N 51°03' E 002°19'0 0.0
2017-Jan-18 23:32N 51°03' E 002°19'0 0.0
2017-Jan-18 22:32N 51°03' E 002°19'0 0.0
2017-Jan-18 21:32N 51°03' E 002°19'0 0.0
2017-Jan-18 20:32N 51°03' E 002°19'0 0.0
2017-Jan-18 19:32N 51°03' E 002°19'0 0.0
2017-Jan-18 18:32N 51°03' E 002°19'0 0.0
2017-Jan-18 17:32N 51°03' E 002°19'0 0.0
2017-Jan-18 16:29N 51°03' E 002°19'0 0.0
2017-Jan-18 15:32N 51°03' E 002°19'0 0.0
2017-Jan-18 14:32N 51°03' E 002°19'0 0.0
2017-Jan-18 13:32N 51°03' E 002°19'0 0.0
2017-Jan-18 12:32N 51°03' E 002°19'0 0.0
2017-Jan-18 11:32N 51°03' E 002°19'0 0.0
2017-Jan-18 10:32N 51°03' E 002°19'0 0.0
2017-Jan-18 09:32N 51°03' E 002°19'0 0.0
2017-Jan-18 08:32N 51°03' E 002°19'0 0.0
2017-Jan-18 07:32N 51°03' E 002°19'0 0.0
2017-Jan-18 06:32N 51°03' E 002°19'0 0.0
2017-Jan-18 05:32N 51°03' E 002°19'0 0.0
2017-Jan-18 04:32N 51°03' E 002°19'0 0.0
2017-Jan-18 03:32N 51°03' E 002°19'0 0.0
2017-Jan-18 02:32N 51°03' E 002°19'0 0.0
2017-Jan-18 01:32N 51°03' E 002°19'0 0.0
2017-Jan-18 00:32N 51°03' E 002°19'0 0.0
2017-Jan-17 23:32N 51°03' E 002°19'0 0.0
2017-Jan-17 22:32N 51°03' E 002°19'0 0.0
2017-Jan-17 21:32N 51°03' E 002°19'0 0.0
2017-Jan-17 20:32N 51°03' E 002°19'0 0.0
2017-Jan-17 19:32N 51°03' E 002°19'0 0.0
2017-Jan-17 18:32N 51°03' E 002°19'0 0.0
2017-Jan-17 17:32N 51°03' E 002°19'0 0.0
2017-Jan-17 16:32N 51°03' E 002°19'0 0.0
2017-Jan-17 15:32N 51°03' E 002°19'0 0.0
2017-Jan-17 14:32N 51°03' E 002°19'0 0.0
2017-Jan-17 13:23N 51°03' E 002°19'0 0.0
2017-Jan-17 12:32N 51°03' E 002°19'0 0.0
2017-Jan-17 11:32N 51°03' E 002°19'0 0.0
2017-Jan-17 10:32N 51°03' E 002°19'0 0.0
2017-Jan-17 09:32N 51°03' E 002°19'0 0.0
2017-Jan-17 08:29N 51°03' E 002°19'0 0.0
2017-Jan-17 07:26N 51°03' E 002°19'0 0.0
2017-Jan-17 06:29N 51°03' E 002°19'0 0.0
2017-Jan-17 05:32N 51°03' E 002°19'0 0.0
2017-Jan-17 04:29N 51°03' E 002°19'0 0.0
2017-Jan-17 03:29N 51°03' E 002°19'0 0.0
2017-Jan-17 02:32N 51°03' E 002°19'0 0.0
2017-Jan-17 01:32N 51°03' E 002°19'0 0.0
2017-Jan-17 00:32N 51°03' E 002°19'0 0.0
2017-Jan-16 23:29N 51°03' E 002°19'0 0.0
2017-Jan-16 22:32N 51°03' E 002°19'0 0.0
2017-Jan-16 21:32N 51°03' E 002°19'0 0.0
2017-Jan-16 20:32N 51°03' E 002°19'0 0.0
2017-Jan-16 19:32N 51°03' E 002°19'0 0.0
2017-Jan-16 18:32N 51°03' E 002°19'0 0.3
2017-Jan-16 17:33N 51°03' E 002°20'1 0.7
2017-Jan-16 16:33N 51°03' E 002°21'7 6.8
2017-Jan-16 15:33N 51°03' E 002°10'1313.3
2017-Jan-16 14:33N 51°02' E 001°49'2 1.6
2017-Jan-16 13:32N 51°02' E 001°46'2 2.0
2017-Jan-16 12:33N 51°01' E 001°44'9 8.7
2017-Jan-16 11:33N 50°56' E 001°33'1110.7
2017-Jan-16 10:33N 50°47' E 001°24'48 9.6
2017-Jan-16 05:31N 50°23' E 000°18'10 9.6
2017-Jan-16 04:29N 50°21' E 000°03'9 9.7
2017-Jan-16 03:33N 50°19' W 000°11'30 9.9
2017-Jan-16 00:29N 50°10' W 000°56'1111.9
2017-Jan-15 23:33N 50°07' W 001°13'1312.7
2017-Jan-15 22:33N 50°04' W 001°32'1313.4
2017-Jan-15 21:34N 49°60' W 001°52'1313.0
2017-Jan-15 20:34N 49°56' W 002°11'12610.4
2017-Jan-15 08:27N 48°58' W 005°03'1111.8
2017-Jan-15 07:30N 48°53' W 005°18'  
2017-Jan-10 03:14N 31°25' W 014°59'711.0
2017-Jan-10 02:33N 31°18' W 015°02'2211.1
2017-Jan-10 00:33N 30°57' W 015°10'1111.2
2017-Jan-09 23:33N 30°46' W 015°13'1211.2
2017-Jan-09 22:31N 30°35' W 015°17'1411.4
2017-Jan-09 21:15N 30°22' W 015°23'811.6
2017-Jan-09 20:33N 30°14' W 015°26'1211.6
2017-Jan-09 19:33N 30°03' W 015°29'1211.5
2017-Jan-09 18:33N 29°52' W 015°33'1211.8
2017-Jan-09 17:33N 29°41' W 015°38'1211.6
2017-Jan-09 16:33N 29°30' W 015°41'1211.5
2017-Jan-09 15:33N 29°19' W 015°45'1111.2
2017-Jan-09 14:33N 29°08' W 015°50'1211.4
2017-Jan-09 13:32N 28°57' W 015°54'1111.6
2017-Jan-09 12:33N 28°46' W 015°58'1211.5
2017-Jan-09 11:33N 28°35' W 016°02'9 9.5
2017-Jan-09 10:33N 28°29' W 016°10'2 0.8
2017-Jan-09 07:22N 28°29' W 016°13'0 0.0
2017-Jan-09 06:25N 28°29' W 016°13'0 0.0
2017-Jan-09 05:25N 28°29' W 016°12'0 0.0
2017-Jan-09 04:25N 28°29' W 016°12'  
Track history (hours):
 
Tides and Currents Weather Stations Pressure Air Temp Water Temp Dewpoint Dewpoint Depression Visibility Wind Speed Wind Dir Waves Ship Positions

Zed

Last reported at 2017-Jan-19 03:33 UTC. Time now 2017-Jan-19 04:32 UTC.
Position N 51°03' E 002°20'.

Length 225 m; draft 7.6 m.

Type: Cargo ship. MMSI: 538007106.

Date/timePositionNaut miles runAvg speedWind from/ knotsBaromVisibWave heightAir tempDewpointWater temp
2017-Jan-19 03:33N 51°03' E 002°20'0 0.4
2017-Jan-19 02:32N 51°03' E 002°19'0 0.0
2017-Jan-19 01:32N 51°03' E 002°19'0 0.0
2017-Jan-19 00:32N 51°03' E 002°19'0 0.0
2017-Jan-18 23:32N 51°03' E 002°19'0 0.0
2017-Jan-18 22:32N 51°03' E 002°19'0 0.0
2017-Jan-18 21:32N 51°03' E 002°19'0 0.0
2017-Jan-18 20:32N 51°03' E 002°19'0 0.0
2017-Jan-18 19:32N 51°03' E 002°19'0 0.0
2017-Jan-18 18:32N 51°03' E 002°19'0 0.0
2017-Jan-18 17:32N 51°03' E 002°19'0 0.0
2017-Jan-18 16:29N 51°03' E 002°19'0 0.0
2017-Jan-18 15:32N 51°03' E 002°19'0 0.0
2017-Jan-18 14:32N 51°03' E 002°19'0 0.0
2017-Jan-18 13:32N 51°03' E 002°19'0 0.0
2017-Jan-18 12:32N 51°03' E 002°19'0 0.0
2017-Jan-18 11:32N 51°03' E 002°19'0 0.0
2017-Jan-18 10:32N 51°03' E 002°19'0 0.0
2017-Jan-18 09:32N 51°03' E 002°19'0 0.0
2017-Jan-18 08:32N 51°03' E 002°19'0 0.0
2017-Jan-18 07:32N 51°03' E 002°19'0 0.0
2017-Jan-18 06:32N 51°03' E 002°19'0 0.0
2017-Jan-18 05:32N 51°03' E 002°19'0 0.0
2017-Jan-18 04:32N 51°03' E 002°19'0 0.0
2017-Jan-18 03:32N 51°03' E 002°19'0 0.0
2017-Jan-18 02:32N 51°03' E 002°19'0 0.0
2017-Jan-18 01:32N 51°03' E 002°19'0 0.0
2017-Jan-18 00:32N 51°03' E 002°19'0 0.0
2017-Jan-17 23:32N 51°03' E 002°19'0 0.0
2017-Jan-17 22:32N 51°03' E 002°19'0 0.0
2017-Jan-17 21:32N 51°03' E 002°19'0 0.0
2017-Jan-17 20:32N 51°03' E 002°19'0 0.0
2017-Jan-17 19:32N 51°03' E 002°19'0 0.0
2017-Jan-17 18:32N 51°03' E 002°19'0 0.0
2017-Jan-17 17:32N 51°03' E 002°19'0 0.0
2017-Jan-17 16:32N 51°03' E 002°19'0 0.0
2017-Jan-17 15:32N 51°03' E 002°19'0 0.0
2017-Jan-17 14:32N 51°03' E 002°19'0 0.0
2017-Jan-17 13:23N 51°03' E 002°19'0 0.0
2017-Jan-17 12:32N 51°03' E 002°19'0 0.0
2017-Jan-17 11:32N 51°03' E 002°19'0 0.0
2017-Jan-17 10:32N 51°03' E 002°19'0 0.0
2017-Jan-17 09:32N 51°03' E 002°19'0 0.0
2017-Jan-17 08:29N 51°03' E 002°19'0 0.0
2017-Jan-17 07:26N 51°03' E 002°19'0 0.0
2017-Jan-17 06:29N 51°03' E 002°19'0 0.0
2017-Jan-17 05:32N 51°03' E 002°19'0 0.0
2017-Jan-17 04:29N 51°03' E 002°19'0 0.0
2017-Jan-17 03:29N 51°03' E 002°19'0 0.0
2017-Jan-17 02:32N 51°03' E 002°19'0 0.0
2017-Jan-17 01:32N 51°03' E 002°19'0 0.0
2017-Jan-17 00:32N 51°03' E 002°19'0 0.0
2017-Jan-16 23:29N 51°03' E 002°19'0 0.0
2017-Jan-16 22:32N 51°03' E 002°19'0 0.0
2017-Jan-16 21:32N 51°03' E 002°19'0 0.0
2017-Jan-16 20:32N 51°03' E 002°19'0 0.0
2017-Jan-16 19:32N 51°03' E 002°19'0 0.0
2017-Jan-16 18:32N 51°03' E 002°19'0 0.3
2017-Jan-16 17:33N 51°03' E 002°20'1 0.7
2017-Jan-16 16:33N 51°03' E 002°21'7 6.8
2017-Jan-16 15:33N 51°03' E 002°10'1313.3
2017-Jan-16 14:33N 51°02' E 001°49'2 1.6
2017-Jan-16 13:32N 51°02' E 001°46'2 2.0
2017-Jan-16 12:33N 51°01' E 001°44'9 8.7
2017-Jan-16 11:33N 50°56' E 001°33'1110.7
2017-Jan-16 10:33N 50°47' E 001°24'48 9.6
2017-Jan-16 05:31N 50°23' E 000°18'10 9.6
2017-Jan-16 04:29N 50°21' E 000°03'9 9.7
2017-Jan-16 03:33N 50°19' W 000°11'30 9.9
2017-Jan-16 00:29N 50°10' W 000°56'1111.9
2017-Jan-15 23:33N 50°07' W 001°13'1312.7
2017-Jan-15 22:33N 50°04' W 001°32'1313.4
2017-Jan-15 21:34N 49°60' W 001°52'1313.0
2017-Jan-15 20:34N 49°56' W 002°11'12610.4
2017-Jan-15 08:27N 48°58' W 005°03'1111.8
2017-Jan-15 07:30N 48°53' W 005°18'  
2017-Jan-10 03:14N 31°25' W 014°59'711.0
2017-Jan-10 02:33N 31°18' W 015°02'2211.1
2017-Jan-10 00:33N 30°57' W 015°10'1111.2
2017-Jan-09 23:33N 30°46' W 015°13'1211.2
2017-Jan-09 22:31N 30°35' W 015°17'1411.4
2017-Jan-09 21:15N 30°22' W 015°23'811.6
2017-Jan-09 20:33N 30°14' W 015°26'1211.6
2017-Jan-09 19:33N 30°03' W 015°29'1211.5
2017-Jan-09 18:33N 29°52' W 015°33'1211.8
2017-Jan-09 17:33N 29°41' W 015°38'1211.6
2017-Jan-09 16:33N 29°30' W 015°41'1211.5
2017-Jan-09 15:33N 29°19' W 015°45'1111.2
2017-Jan-09 14:33N 29°08' W 015°50'1211.4
2017-Jan-09 13:32N 28°57' W 015°54'1111.6
2017-Jan-09 12:33N 28°46' W 015°58'1211.5
2017-Jan-09 11:33N 28°35' W 016°02'9 9.5
2017-Jan-09 10:33N 28°29' W 016°10'2 0.8
2017-Jan-09 07:22N 28°29' W 016°13'0 0.0
2017-Jan-09 06:25N 28°29' W 016°13'0 0.0
2017-Jan-09 05:25N 28°29' W 016°12'0 0.0
2017-Jan-09 04:25N 28°29' W 016°12'  

Dump ship's entire track history